In Rescue
 
Open Full Screen Window  High Contrast Mode
Wind Gusting 00 knots
04
November 29, 2022 8:55 AM EST
Weather Information
Wind Direction
  130 °
Wind Speed
  04 kt (5 mph)
Wind Gust
  00 kt (0 mph)
Altimeter
29.85 in
Visibility
10 SM
Temperature
04° C
39° F
Dewpoint
02° C
36° F
Humidity
87%
Sky Condition
Clear
VFR

METAR KFKS 291355Z AUTO 13004KT 10SM CLR 04/02 A2985 RMK AO2 T00410015

FAA Disclaimer: The data displayed is for advisory purposes only and is not to be used for flight planning or operations.